createdAt,value
2017-08-24T00:00:25.329Z,63.40
2017-08-24T00:02:54.307Z,62.90
2017-08-24T00:05:23.274Z,64.30
2017-08-24T00:07:52.282Z,63.40
2017-08-24T00:10:21.258Z,63.30
2017-08-24T00:12:50.201Z,65.00
2017-08-24T00:15:19.212Z,64.80
2017-08-24T00:17:48.149Z,63.70
2017-08-24T00:20:17.092Z,65.00
2017-08-24T00:22:46.065Z,64.70
2017-08-24T00:25:15.114Z,64.50
2017-08-24T00:27:44.084Z,66.20
2017-08-24T00:30:13.034Z,65.00
2017-08-24T00:32:41.985Z,67.20
2017-08-24T00:35:10.972Z,67.00
2017-08-24T00:37:40.090Z,65.80
2017-08-24T00:40:09.072Z,65.30
2017-08-24T00:42:38.045Z,66.10
2017-08-24T00:45:07.791Z,63.70
2017-08-24T00:47:36.774Z,63.60
2017-08-24T00:50:05.761Z,63.80
2017-08-24T00:52:34.701Z,63.20
2017-08-24T00:55:04.675Z,64.20
2017-08-24T00:57:33.624Z,64.20
2017-08-24T01:00:02.609Z,63.70
2017-08-24T01:02:31.561Z,65.20
2017-08-24T01:05:00.505Z,65.60
2017-08-24T01:07:29.472Z,65.30
2017-08-24T01:09:58.430Z,66.80
2017-08-24T01:12:27.742Z,65.50
2017-08-24T01:14:56.684Z,66.20
2017-08-24T01:17:26.529Z,65.20
2017-08-24T01:19:55.487Z,66.20
2017-08-24T01:22:24.566Z,65.90
2017-08-24T01:24:53.496Z,64.80
2017-08-24T01:27:22.475Z,65.00
2017-08-24T01:29:51.487Z,65.40
2017-08-24T01:32:20.488Z,67.70
2017-08-24T01:34:49.476Z,67.00
2017-08-24T01:37:18.547Z,65.30
2017-08-24T01:39:47.495Z,65.60
2017-08-24T01:42:16.770Z,66.70
2017-08-24T01:44:45.713Z,67.70
2017-08-24T01:47:15.521Z,66.00
2017-08-24T01:49:44.489Z,66.00
2017-08-24T01:52:13.625Z,66.30
2017-08-24T01:54:42.738Z,66.20
2017-08-24T01:57:11.675Z,67.60
2017-08-24T01:59:40.744Z,68.30
2017-08-24T02:02:09.730Z,67.30
2017-08-24T02:04:38.694Z,67.50
2017-08-24T02:07:07.702Z,66.70
2017-08-24T02:09:36.741Z,67.30
2017-08-24T02:12:05.684Z,68.50
2017-08-24T02:14:34.679Z,68.80
2017-08-24T02:17:03.648Z,69.10
2017-08-24T02:19:32.630Z,69.50
2017-08-24T02:22:01.602Z,69.50
2017-08-24T02:24:32.772Z,69.50
2017-08-24T02:27:02.912Z,74.30
2017-08-24T02:29:31.879Z,75.70
2017-08-24T02:32:00.896Z,77.90
2017-08-24T02:34:29.902Z,78.30
2017-08-24T02:36:58.892Z,78.30
2017-08-24T02:39:27.889Z,78.70
2017-08-24T02:41:56.887Z,80.60
2017-08-24T02:44:26.645Z,79.20
2017-08-24T02:46:55.584Z,79.10
2017-08-24T02:49:24.552Z,80.50
2017-08-24T02:51:53.517Z,81.30
2017-08-24T02:54:22.517Z,81.50
2017-08-24T02:56:51.461Z,81.80
2017-08-24T02:59:20.484Z,82.50
2017-08-24T03:01:49.453Z,83.40
2017-08-24T03:04:18.387Z,82.40
2017-08-24T03:06:47.361Z,83.40
2017-08-24T03:09:17.090Z,83.20
2017-08-24T03:11:46.042Z,83.10
2017-08-24T03:14:15.232Z,86.70
2017-08-24T03:16:44.186Z,86.90
2017-08-24T03:19:13.179Z,89.30
2017-08-24T03:21:42.126Z,90.00
2017-08-24T03:24:11.109Z,90.70
2017-08-24T03:26:40.084Z,91.20
2017-08-24T03:29:09.054Z,92.10
2017-08-24T03:31:38.094Z,92.50
2017-08-24T03:34:07.046Z,93.40
2017-08-24T03:36:36.022Z,93.70
2017-08-24T03:39:05.011Z,94.30
2017-08-24T03:41:33.986Z,94.30
2017-08-24T03:44:02.929Z,94.20
2017-08-24T03:46:31.926Z,94.10
2017-08-24T03:49:00.913Z,94.00
2017-08-24T03:51:29.909Z,94.20
2017-08-24T03:53:58.882Z,93.90
2017-08-24T03:56:27.869Z,94.00
2017-08-24T03:58:56.814Z,94.20
2017-08-24T04:01:25.774Z,94.40
2017-08-24T04:03:54.752Z,94.50
2017-08-24T04:06:23.721Z,94.60
2017-08-24T04:08:52.707Z,94.60
2017-08-24T04:11:21.674Z,94.30
2017-08-24T04:13:50.655Z,94.50
2017-08-24T04:16:19.634Z,94.40
2017-08-24T04:18:48.691Z,94.40
2017-08-24T04:21:17.681Z,94.70
2017-08-24T04:23:46.660Z,94.40
2017-08-24T04:26:15.704Z,94.60
2017-08-24T04:28:47.749Z,94.60
2017-08-24T04:31:17.024Z,95.30
2017-08-24T04:33:46.037Z,95.60
2017-08-24T04:36:15.040Z,95.70
2017-08-24T04:38:44.065Z,95.40
2017-08-24T04:41:13.054Z,95.80
2017-08-24T04:43:42.143Z,96.10
2017-08-24T04:46:11.114Z,95.70
2017-08-24T04:48:40.080Z,96.50
2017-08-24T04:51:09.061Z,95.80
2017-08-24T04:53:38.101Z,96.60
2017-08-24T04:56:07.080Z,96.60
2017-08-24T04:58:36.097Z,96.40
2017-08-24T05:01:05.097Z,96.40
2017-08-24T05:03:34.239Z,96.70
2017-08-24T05:06:03.224Z,96.50
2017-08-24T05:08:32.192Z,97.10
2017-08-24T05:11:01.189Z,97.20
2017-08-24T05:13:30.145Z,97.30
2017-08-24T05:15:59.132Z,97.30
2017-08-24T05:18:28.112Z,96.80
2017-08-24T05:20:57.108Z,97.10
2017-08-24T05:23:26.097Z,97.30
2017-08-24T05:25:55.113Z,96.70
2017-08-24T05:28:24.088Z,96.70
2017-08-24T05:30:53.037Z,97.30
2017-08-24T05:33:22.042Z,97.40
2017-08-24T05:35:51.138Z,97.50
2017-08-24T05:38:20.125Z,97.20
2017-08-24T05:40:49.087Z,97.30
2017-08-24T05:43:18.060Z,97.30
2017-08-24T05:45:47.073Z,97.10
2017-08-24T05:48:16.069Z,97.00
2017-08-24T05:50:45.046Z,97.30
2017-08-24T05:53:14.037Z,97.00
2017-08-24T05:55:43.004Z,97.40
2017-08-24T05:58:13.391Z,97.80
2017-08-24T06:00:42.442Z,97.70
2017-08-24T06:03:11.494Z,97.90
2017-08-24T06:05:40.467Z,97.80
2017-08-24T06:08:09.438Z,97.10
2017-08-24T06:10:38.412Z,97.10
2017-08-24T06:13:07.404Z,97.50
2017-08-24T06:15:36.378Z,97.50
2017-08-24T06:18:05.417Z,97.30
2017-08-24T06:20:34.394Z,97.30
2017-08-24T06:23:03.397Z,97.20
2017-08-24T06:25:32.486Z,97.40
2017-08-24T06:28:01.507Z,97.20
2017-08-24T06:30:30.479Z,97.30
2017-08-24T06:32:59.465Z,96.70
2017-08-24T06:35:28.421Z,97.10
2017-08-24T06:37:57.461Z,96.60
2017-08-24T06:40:26.448Z,96.70
2017-08-24T06:42:55.413Z,96.80
2017-08-24T06:45:25.285Z,96.70
2017-08-24T06:47:54.309Z,96.50
2017-08-24T06:50:23.374Z,96.60
2017-08-24T06:52:52.338Z,96.80
2017-08-24T06:55:21.308Z,96.80
2017-08-24T06:57:50.287Z,96.50
2017-08-24T07:00:19.268Z,96.40
2017-08-24T07:02:48.283Z,96.80
2017-08-24T07:05:17.287Z,96.10
2017-08-24T07:07:46.252Z,97.00
2017-08-24T07:10:15.286Z,96.80
2017-08-24T07:12:44.271Z,96.10
2017-08-24T07:15:13.258Z,96.10
2017-08-24T07:17:42.258Z,96.00
2017-08-24T07:20:11.248Z,95.70
2017-08-24T07:22:40.255Z,95.30
2017-08-24T07:25:09.283Z,95.20
2017-08-24T07:27:38.283Z,94.70
2017-08-24T07:30:07.239Z,94.30
2017-08-24T07:32:36.268Z,94.30
2017-08-24T07:35:05.199Z,93.60
2017-08-24T07:37:34.200Z,94.00
2017-08-24T07:40:03.176Z,93.50
2017-08-24T07:42:32.230Z,92.80
2017-08-24T07:45:01.181Z,93.20
2017-08-24T07:47:30.286Z,93.60
2017-08-24T07:49:59.265Z,93.30
2017-08-24T07:52:28.258Z,93.20
2017-08-24T07:54:57.243Z,92.80
2017-08-24T07:57:26.299Z,91.90
2017-08-24T07:59:56.167Z,92.50
2017-08-24T08:02:25.132Z,91.70
2017-08-24T08:04:54.132Z,91.80
2017-08-24T08:07:23.088Z,92.00
2017-08-24T08:09:52.844Z,91.50
2017-08-24T08:12:21.826Z,91.50
2017-08-24T08:14:50.828Z,91.20
2017-08-24T08:17:19.793Z,91.40
2017-08-24T08:19:48.863Z,90.20
2017-08-24T08:22:17.888Z,90.00
2017-08-24T08:24:46.915Z,90.10
2017-08-24T08:27:15.859Z,90.50
2017-08-24T08:29:44.872Z,90.00
2017-08-24T08:32:13.876Z,90.00
2017-08-24T08:34:42.873Z,90.10
2017-08-24T08:37:11.838Z,90.00
2017-08-24T08:39:40.809Z,87.60
2017-08-24T08:42:09.824Z,87.90
2017-08-24T08:44:38.921Z,87.10
2017-08-24T08:47:07.936Z,88.70
2017-08-24T08:49:37.260Z,88.80
2017-08-24T08:52:06.440Z,85.30
2017-08-24T08:54:35.869Z,84.10
2017-08-24T08:57:04.870Z,83.30
2017-08-24T08:59:34.623Z,82.50
2017-08-24T09:02:03.640Z,82.50
2017-08-24T09:04:33.481Z,81.60
2017-08-24T09:07:03.657Z,82.30
2017-08-24T09:09:32.653Z,82.30
2017-08-24T09:12:01.623Z,80.80
2017-08-24T09:14:30.643Z,80.50
2017-08-24T09:17:00.653Z,79.60
2017-08-24T09:19:30.687Z,79.20
2017-08-24T09:22:00.489Z,78.20
2017-08-24T09:24:29.536Z,78.10
2017-08-24T09:26:58.665Z,75.50
2017-08-24T09:29:27.733Z,75.20
2017-08-24T09:31:56.782Z,75.80
2017-08-24T09:34:25.774Z,75.40
2017-08-24T09:36:54.851Z,78.10
2017-08-24T09:39:23.956Z,75.60
2017-08-24T09:41:53.033Z,74.50
2017-08-24T09:44:22.143Z,74.10
2017-08-24T09:46:51.202Z,73.10
2017-08-24T09:49:20.716Z,73.60
2017-08-24T09:51:49.757Z,71.00
2017-08-24T09:54:18.748Z,70.80
2017-08-24T09:56:47.866Z,70.20
2017-08-24T09:59:17.614Z,69.40
2017-08-24T10:01:47.125Z,69.30
2017-08-24T10:04:16.189Z,67.70
2017-08-24T10:06:46.095Z,68.50
2017-08-24T10:09:15.106Z,69.20
2017-08-24T10:11:44.124Z,69.20
2017-08-24T10:14:13.286Z,67.90
2017-08-24T10:16:42.282Z,70.10
2017-08-24T10:19:11.253Z,68.80
2017-08-24T10:21:40.997Z,66.20
2017-08-24T10:24:10.652Z,67.00
2017-08-24T10:26:39.749Z,65.30
2017-08-24T10:29:08.769Z,65.60
2017-08-24T10:31:38.366Z,64.00
2017-08-24T10:34:07.552Z,64.10
2017-08-24T10:36:36.568Z,61.50
2017-08-24T10:39:05.644Z,61.40
2017-08-24T10:41:34.608Z,65.30
2017-08-24T10:44:03.612Z,62.70
2017-08-24T10:46:32.686Z,59.30
2017-08-24T10:49:01.691Z,59.80
2017-08-24T10:51:30.775Z,61.10
2017-08-24T10:53:59.769Z,60.40
2017-08-24T10:56:28.754Z,60.20
2017-08-24T10:58:57.720Z,59.20
2017-08-24T11:01:26.740Z,58.70
2017-08-24T11:03:55.749Z,60.10
2017-08-24T11:06:26.482Z,59.50
2017-08-24T11:08:55.484Z,59.50
2017-08-24T11:11:25.289Z,59.20
2017-08-24T11:13:54.294Z,57.90
2017-08-24T11:16:23.297Z,59.50
2017-08-24T11:18:52.308Z,62.30
2017-08-24T11:21:21.277Z,61.00
2017-08-24T11:23:50.261Z,60.80
2017-08-24T11:26:19.450Z,60.70
2017-08-24T11:28:48.442Z,62.50
2017-08-24T11:31:17.450Z,62.20
2017-08-24T11:33:47.178Z,64.10
2017-08-24T11:36:16.253Z,64.10
2017-08-24T11:38:45.872Z,63.90
2017-08-24T11:41:14.882Z,64.40
2017-08-24T11:43:43.901Z,63.60
2017-08-24T11:46:12.910Z,60.00
2017-08-24T11:48:41.851Z,61.90
2017-08-24T11:51:10.840Z,59.30
2017-08-24T11:53:39.792Z,57.00
2017-08-24T11:56:08.778Z,55.50
2017-08-24T11:58:37.743Z,55.80
2017-08-24T12:01:06.745Z,53.50
2017-08-24T12:03:35.791Z,51.30
2017-08-24T12:06:04.804Z,53.50
2017-08-24T12:08:33.859Z,53.60
2017-08-24T12:11:02.881Z,51.90
2017-08-24T12:13:31.951Z,49.30
2017-08-24T12:16:00.979Z,52.10
2017-08-24T12:18:30.093Z,50.80
2017-08-24T12:20:59.079Z,52.30
2017-08-24T12:23:28.109Z,51.70
2017-08-24T12:25:57.179Z,47.80
2017-08-24T12:28:26.159Z,47.70
2017-08-24T12:30:55.215Z,45.30
2017-08-24T12:33:24.416Z,47.10
2017-08-24T12:35:53.875Z,48.00
2017-08-24T12:38:23.612Z,49.20
2017-08-24T12:40:52.613Z,47.90
2017-08-24T12:43:21.830Z,46.70
2017-08-24T12:45:50.796Z,46.00
2017-08-24T12:48:19.746Z,47.00
2017-08-24T12:50:48.722Z,46.20
2017-08-24T12:53:17.674Z,45.70
2017-08-24T12:55:46.703Z,47.70
2017-08-24T12:58:15.713Z,46.50
2017-08-24T13:00:44.686Z,45.40
2017-08-24T13:03:13.659Z,44.40
2017-08-24T13:05:42.618Z,44.30
2017-08-24T13:08:11.632Z,42.30
2017-08-24T13:10:40.734Z,40.20
2017-08-24T13:13:09.704Z,40.20
2017-08-24T13:15:38.706Z,39.90
2017-08-24T13:18:07.681Z,40.40
2017-08-24T13:20:36.678Z,40.30
2017-08-24T13:23:05.648Z,41.60
2017-08-24T13:25:35.035Z,41.60
2017-08-24T13:28:04.172Z,41.10
2017-08-24T13:30:33.136Z,40.60
2017-08-24T13:33:02.124Z,42.80
2017-08-24T13:35:31.099Z,43.50
2017-08-24T13:38:00.103Z,41.50
2017-08-24T13:40:29.110Z,40.60
2017-08-24T13:42:58.146Z,41.40
2017-08-24T13:45:27.122Z,40.80
2017-08-24T13:47:56.106Z,39.70
2017-08-24T13:50:25.090Z,40.90
2017-08-24T13:52:54.073Z,41.00
2017-08-24T13:55:23.077Z,39.80
2017-08-24T13:57:52.036Z,39.50
2017-08-24T14:00:20.983Z,40.30
2017-08-24T14:02:49.980Z,40.20
2017-08-24T14:05:18.947Z,37.70
2017-08-24T14:07:47.952Z,36.60
2017-08-24T14:10:16.917Z,38.00
2017-08-24T14:12:45.884Z,41.20
2017-08-24T14:15:14.849Z,40.50
2017-08-24T14:17:44.608Z,37.50
2017-08-24T14:20:13.742Z,37.60
2017-08-24T14:22:42.740Z,40.70
2017-08-24T14:25:12.411Z,39.00
2017-08-24T14:27:41.470Z,37.90
2017-08-24T14:30:10.493Z,40.80
2017-08-24T14:32:39.503Z,43.40
2017-08-24T14:35:08.532Z,45.10
2017-08-24T14:37:37.669Z,46.80
2017-08-24T14:40:06.631Z,48.10
2017-08-24T14:42:35.656Z,48.10
2017-08-24T14:45:04.611Z,48.70
2017-08-24T14:47:33.607Z,50.20
2017-08-24T14:50:02.665Z,50.60
2017-08-24T14:52:31.792Z,52.00
2017-08-24T14:55:00.765Z,51.80
2017-08-24T14:57:29.755Z,52.70
2017-08-24T14:59:59.470Z,54.40
2017-08-24T15:02:28.494Z,55.00
2017-08-24T15:04:57.460Z,55.60
2017-08-24T15:07:26.494Z,55.70
2017-08-24T15:09:55.445Z,55.30
2017-08-24T15:12:24.464Z,55.50
2017-08-24T15:14:53.425Z,55.30
2017-08-24T15:17:22.413Z,55.50
2017-08-24T15:19:52.233Z,55.80
2017-08-24T15:22:21.473Z,55.50
2017-08-24T15:24:50.496Z,56.50
2017-08-24T15:27:19.464Z,57.40
2017-08-24T15:29:48.470Z,57.00
2017-08-24T15:32:18.097Z,56.60
2017-08-24T15:34:47.081Z,57.60
2017-08-24T15:37:16.029Z,57.90
2017-08-24T15:39:45.021Z,58.00
2017-08-24T15:42:13.990Z,59.30
2017-08-24T15:44:42.986Z,58.80
2017-08-24T15:47:11.929Z,57.70
2017-08-24T15:49:40.954Z,59.00
2017-08-24T15:52:09.915Z,59.50
2017-08-24T15:54:38.872Z,60.00
2017-08-24T15:57:07.851Z,60.70
2017-08-24T15:59:36.831Z,62.00
2017-08-24T16:02:05.918Z,75.60
2017-08-24T16:04:35.654Z,87.60
2017-08-24T16:07:04.630Z,87.60
2017-08-24T16:09:33.613Z,90.00
2017-08-24T16:12:03.486Z,88.60
2017-08-24T16:14:32.483Z,89.20
2017-08-24T16:17:01.435Z,88.00
2017-08-24T16:19:30.437Z,84.70
2017-08-24T16:21:59.411Z,80.10
2017-08-24T16:24:28.373Z,81.80
2017-08-24T16:26:57.360Z,79.60
2017-08-24T16:29:26.366Z,81.10
2017-08-24T16:31:55.343Z,82.80
2017-08-24T16:34:24.322Z,79.50
2017-08-24T16:36:53.259Z,79.70
2017-08-24T16:39:22.244Z,82.50
2017-08-24T16:41:51.211Z,81.80
2017-08-24T16:44:20.219Z,77.60
2017-08-24T16:46:49.943Z,76.20
2017-08-24T16:49:19.026Z,75.80
2017-08-24T16:51:48.016Z,78.40
2017-08-24T16:54:16.989Z,84.10
2017-08-24T16:56:45.951Z,80.50
2017-08-24T16:59:14.944Z,79.30
2017-08-24T17:01:43.927Z,78.10
2017-08-24T17:04:12.910Z,77.90
2017-08-24T17:06:42.711Z,80.80
2017-08-24T17:09:11.705Z,78.70
2017-08-24T17:11:40.685Z,78.20
2017-08-24T17:14:09.676Z,76.20
2017-08-24T17:16:38.638Z,79.00
2017-08-24T17:19:07.692Z,76.20
2017-08-24T17:21:36.674Z,80.00
2017-08-24T17:24:05.663Z,80.80
2017-08-24T17:26:34.624Z,81.60
2017-08-24T17:29:03.671Z,77.50
2017-08-24T17:31:32.608Z,80.40
2017-08-24T17:34:01.566Z,78.70
2017-08-24T17:36:30.598Z,77.80
2017-08-24T17:38:59.577Z,77.20
2017-08-24T17:41:28.549Z,77.70
2017-08-24T17:43:57.532Z,79.90
2017-08-24T17:46:26.504Z,82.30
2017-08-24T17:48:55.496Z,78.50
2017-08-24T17:51:24.457Z,81.30
2017-08-24T17:53:54.199Z,82.00
2017-08-24T17:56:23.147Z,81.80
2017-08-24T17:58:52.162Z,82.90
2017-08-24T18:01:21.139Z,80.30
2017-08-24T18:03:50.142Z,83.10
2017-08-24T18:06:19.135Z,81.80
2017-08-24T18:08:48.101Z,84.00
2017-08-24T18:11:17.206Z,85.30
2017-08-24T18:13:46.182Z,85.50
2017-08-24T18:16:15.136Z,86.40
2017-08-24T18:18:44.118Z,87.50
2017-08-24T18:21:13.100Z,87.90
2017-08-24T18:23:42.085Z,88.40
2017-08-24T18:26:11.058Z,88.50
2017-08-24T18:28:40.044Z,88.70
2017-08-24T18:31:09.005Z,89.60
2017-08-24T18:33:38.015Z,88.70
2017-08-24T18:36:07.022Z,88.50
2017-08-24T18:38:36.016Z,88.40
2017-08-24T18:41:04.971Z,89.10
2017-08-24T18:43:33.921Z,83.60
2017-08-24T18:46:02.917Z,86.50
2017-08-24T18:48:31.882Z,81.60
2017-08-24T18:51:00.881Z,81.90
2017-08-24T18:53:29.841Z,81.40
2017-08-24T18:55:58.833Z,82.10
2017-08-24T18:58:27.794Z,81.40
2017-08-24T19:00:56.784Z,83.60
2017-08-24T19:03:25.741Z,83.70
2017-08-24T19:05:54.838Z,83.10
2017-08-24T19:08:23.893Z,84.20
2017-08-24T19:10:52.893Z,85.30
2017-08-24T19:13:22.008Z,85.70
2017-08-24T19:15:51.005Z,86.70
2017-08-24T19:18:19.979Z,87.10
2017-08-24T19:20:48.959Z,88.30
2017-08-24T19:23:18.182Z,87.90
2017-08-24T19:25:47.164Z,88.10
2017-08-24T19:28:16.144Z,88.30
2017-08-24T19:30:45.212Z,88.50
2017-08-24T19:33:14.412Z,89.70
2017-08-24T19:35:43.428Z,89.60
2017-08-24T19:38:12.450Z,89.30
2017-08-24T19:40:41.439Z,89.50
2017-08-24T19:43:10.922Z,89.90
2017-08-24T19:45:39.928Z,89.70
2017-08-24T19:48:08.887Z,90.10
2017-08-24T19:50:37.915Z,90.00
2017-08-24T19:53:06.913Z,89.70
2017-08-24T19:55:35.904Z,90.00
2017-08-24T19:58:04.933Z,90.20
2017-08-24T20:00:33.906Z,90.20
2017-08-24T20:03:03.217Z,90.60
2017-08-24T20:05:32.206Z,90.30
2017-08-24T20:08:01.166Z,90.20
2017-08-24T20:10:30.150Z,90.30
2017-08-24T20:12:59.112Z,90.10
2017-08-24T20:15:28.116Z,90.20
2017-08-24T20:17:57.854Z,90.20
2017-08-24T20:20:27.591Z,90.30
2017-08-24T20:22:56.894Z,90.30
2017-08-24T20:25:25.902Z,90.40
2017-08-24T20:27:54.956Z,90.40
2017-08-24T20:30:23.947Z,90.10
2017-08-24T20:32:52.898Z,90.30
2017-08-24T20:35:21.878Z,90.10
2017-08-24T20:37:50.853Z,90.20
2017-08-24T20:40:20.168Z,90.30
2017-08-24T20:42:49.120Z,90.30
2017-08-24T20:45:18.198Z,90.20
2017-08-24T20:47:59.139Z,90.50
2017-08-24T20:50:30.394Z,90.30
2017-08-24T20:52:59.336Z,90.30
2017-08-24T20:55:28.316Z,90.40
2017-08-24T20:57:57.277Z,90.40
2017-08-24T21:00:26.272Z,90.60
2017-08-24T21:02:55.237Z,90.50
2017-08-24T21:05:24.192Z,90.20
2017-08-24T21:07:53.154Z,90.10
2017-08-24T21:10:22.128Z,89.40
2017-08-24T21:12:51.065Z,89.60
2017-08-24T21:15:20.223Z,89.80
2017-08-24T21:17:49.165Z,89.30
2017-08-24T21:20:18.146Z,89.50
2017-08-24T21:22:47.110Z,89.70
2017-08-24T21:25:16.357Z,89.40
2017-08-24T21:27:45.318Z,89.80
2017-08-24T21:30:14.456Z,88.80
2017-08-24T21:32:43.421Z,89.50
2017-08-24T21:35:12.486Z,89.60
2017-08-24T21:37:41.498Z,89.00
2017-08-24T21:40:10.463Z,89.20
2017-08-24T21:42:39.583Z,90.00
2017-08-24T21:45:08.596Z,88.90
2017-08-24T21:47:37.546Z,89.30
2017-08-24T21:50:08.201Z,89.80
2017-08-24T21:52:37.160Z,89.30
2017-08-24T21:55:06.152Z,89.20
2017-08-24T21:57:35.155Z,88.90
2017-08-24T22:00:04.318Z,89.10
2017-08-24T22:02:33.260Z,89.10
2017-08-24T22:05:02.270Z,89.20
2017-08-24T22:07:31.217Z,89.50
2017-08-24T22:10:00.173Z,89.70
2017-08-24T22:12:29.182Z,90.20
2017-08-24T22:14:58.264Z,90.30
2017-08-24T22:17:27.240Z,90.20
2017-08-24T22:19:57.369Z,90.00
2017-08-24T22:22:26.336Z,90.00
2017-08-24T22:24:55.329Z,90.00
2017-08-24T22:27:24.272Z,89.50
2017-08-24T22:29:53.269Z,89.50
2017-08-24T22:32:22.229Z,90.00
2017-08-24T22:34:51.175Z,90.10
2017-08-24T22:37:20.159Z,89.90
2017-08-24T22:39:49.113Z,90.10
2017-08-24T22:42:18.116Z,90.10
2017-08-24T22:44:47.066Z,89.80
2017-08-24T22:47:16.045Z,89.60
2017-08-24T22:49:45.008Z,89.30
2017-08-24T22:52:13.986Z,89.50
2017-08-24T22:54:48.549Z,89.40
2017-08-24T22:57:23.181Z,90.10
2017-08-24T22:59:58.038Z,90.00
2017-08-24T23:02:32.665Z,90.00
2017-08-24T23:05:02.959Z,90.00
2017-08-24T23:07:31.898Z,90.00
2017-08-24T23:10:00.892Z,89.40
2017-08-24T23:12:29.863Z,89.50
2017-08-24T23:14:58.830Z,89.30
2017-08-24T23:17:27.819Z,89.50
2017-08-24T23:19:57.545Z,90.20
2017-08-24T23:22:26.504Z,90.20
2017-08-24T23:24:55.456Z,89.50
2017-08-24T23:27:24.392Z,89.30
2017-08-24T23:29:54.256Z,89.10
2017-08-24T23:32:23.217Z,90.00
2017-08-24T23:34:52.186Z,89.70
2017-08-24T23:37:21.947Z,89.10
2017-08-24T23:39:51.575Z,89.10
2017-08-24T23:42:20.556Z,88.50
2017-08-24T23:44:49.610Z,88.80
2017-08-24T23:47:18.586Z,88.30
2017-08-24T23:49:47.934Z,89.10
2017-08-24T23:52:16.900Z,89.00
2017-08-24T23:54:45.864Z,88.70
2017-08-24T23:57:14.851Z,88.90
2017-08-24T23:59:44.573Z,88.90
